Millis, Massachusetts
Current Conditions -  °F | °C
As of 1:01 PM on Thursday 23 Oct 2014 (Local Time) from KOWD Reporting Station
Overcast Overcast  
Wind Chill: 55°   Ceiling: 1000
Heat Index: 55°   Visibility: 10mi
Dew Point: 52°   Wind: 14mph
Humidity: 89%   Direction: 10°N
Pressure: 29.59"   Gusts: 22mph
Location:  42.17°N, 71.36°W
Report Text: KOWD 231701Z 01012G19KT 10SM OVC010 13/11 A2959 RMK AO2 RAE1656 CIG 008V013 P0000 T01280111
Loading
Personal Weather Stations






























Interactive Weather Map
Tropical Storm Tracking
New forecast layout! Learn more

10-Day Weather Forecast

Advertisements
Track Severe Weather on mobile